createdAt,value
2018-12-23T00:32:44.646Z,60.3
2018-12-23T00:33:35.416Z,60.3
2018-12-23T00:34:39.666Z,60.3
2018-12-23T00:36:12.551Z,60.3
2018-12-23T00:37:07.626Z,60.3
2018-12-23T00:37:44.751Z,60.3
2018-12-23T00:38:33.395Z,60.3
2018-12-23T05:02:02.308Z,64.3
2018-12-23T05:02:51.899Z,64.3
2018-12-23T05:03:47.076Z,64.3
2018-12-23T05:04:32.265Z,64.3
2018-12-23T05:05:21.992Z,64.3
2018-12-23T05:06:12.376Z,64.3
2018-12-23T05:07:01.570Z,64.3
2018-12-23T05:07:51.589Z,64.3
2018-12-23T05:08:41.953Z,64.3
2018-12-23T05:09:32.419Z,64.3
2018-12-23T05:10:22.600Z,64.3
2018-12-23T05:11:12.064Z,64.3
2018-12-23T05:12:02.186Z,64.3
2018-12-23T05:12:52.500Z,64.3
2018-12-23T05:13:42.024Z,64.2
2018-12-23T05:14:32.602Z,64.2
2018-12-23T05:15:22.471Z,64.2
2018-12-23T05:16:12.482Z,64.2
2018-12-23T05:17:02.526Z,64.2
2018-12-23T05:17:53.331Z,64.1
2018-12-23T05:18:43.213Z,64.1
2018-12-23T05:19:33.070Z,64.1
2018-12-23T05:20:23.004Z,64.1
2018-12-23T05:21:13.066Z,64.1
2018-12-23T05:22:03.727Z,64.1
2018-12-23T05:22:53.734Z,64.1
2018-12-23T05:23:42.978Z,64.1
2018-12-23T05:24:32.456Z,64.1
2018-12-23T05:25:22.504Z,64.1
2018-12-23T05:26:13.765Z,64.1
2018-12-23T05:27:03.179Z,64.1
2018-12-23T05:27:53.508Z,64.1
2018-12-23T05:28:43.566Z,64.1
2018-12-23T05:29:33.647Z,64.1
2018-12-23T05:30:23.680Z,64.1
2018-12-23T05:31:13.471Z,64.1
2018-12-23T05:32:03.519Z,64
2018-12-23T05:32:54.413Z,64
2018-12-23T05:33:44.183Z,64
2018-12-23T05:34:33.430Z,64
2018-12-23T05:35:23.757Z,64
2018-12-23T05:36:13.797Z,64
2018-12-23T05:37:03.838Z,63.9
2018-12-23T05:37:54.730Z,63.9
2018-12-23T05:38:44.250Z,63.9
2018-12-23T05:39:34.317Z,63.9
2018-12-23T05:40:24.412Z,63.9
2018-12-23T05:41:14.703Z,63.9
2018-12-23T05:42:03.951Z,63.9
2018-12-23T05:42:55.123Z,63.9
2018-12-23T05:43:44.892Z,63.9
2018-12-23T05:44:34.414Z,63.9
2018-12-23T05:45:24.730Z,63.9
2018-12-23T05:46:15.134Z,63.9
2018-12-23T05:47:05.071Z,63.9
2018-12-23T05:47:55.671Z,63.9
2018-12-23T05:48:45.174Z,63.8
2018-12-23T05:49:34.534Z,63.9
2018-12-23T05:50:25.039Z,63.8
2018-12-23T05:51:14.815Z,63.8
2018-12-23T05:52:05.211Z,63.8
2018-12-23T05:52:55.221Z,63.8
2018-12-23T05:53:45.269Z,63.8
2018-12-23T05:54:35.371Z,63.8
2018-12-23T05:55:25.402Z,63.8
2018-12-23T05:56:15.150Z,63.8
2018-12-23T05:57:05.494Z,63.8
2018-12-23T05:57:56.033Z,63.8
2018-12-23T05:58:45.398Z,63.8
2018-12-23T05:59:35.408Z,63.8
2018-12-23T06:00:25.453Z,63.7
2018-12-23T06:01:15.789Z,63.7
2018-12-23T06:02:05.833Z,63.7
2018-12-23T06:02:55.888Z,63.7
2018-12-23T06:03:46.006Z,63.7
2018-12-23T06:04:35.745Z,63.7
2018-12-23T06:05:26.045Z,63.7
2018-12-23T06:06:15.845Z,63.6
2018-12-23T06:07:06.448Z,63.6
2018-12-23T06:07:56.232Z,63.6
2018-12-23T06:08:46.266Z,63.6
2018-12-23T06:09:36.630Z,63.6
2018-12-23T06:10:26.230Z,63.6
2018-12-23T06:11:16.732Z,63.6
2018-12-23T06:12:06.237Z,63.6
2018-12-23T06:12:56.362Z,63.6
2018-12-23T06:13:46.872Z,63.6
2018-12-23T06:14:36.692Z,63.6
2018-12-23T06:15:26.738Z,63.6
2018-12-23T06:16:16.779Z,63.6
2018-12-23T06:17:07.122Z,63.6
2018-12-23T06:17:57.281Z,63.5
2018-12-23T06:18:47.086Z,63.5
2018-12-23T06:19:37.022Z,63.5
2018-12-23T06:20:27.085Z,63.5
2018-12-23T06:21:17.126Z,63.5
2018-12-23T06:22:06.914Z,63.5
2018-12-23T06:22:57.209Z,63.4
2018-12-23T06:23:47.587Z,63.4
2018-12-23T06:24:37.646Z,63.4
2018-12-23T06:25:27.806Z,63.4
2018-12-23T06:26:17.486Z,63.4
2018-12-23T06:27:07.796Z,63.4
2018-12-23T06:27:57.581Z,63.4
2018-12-23T06:28:49.795Z,63.4
2018-12-23T06:29:37.431Z,63.4
2018-12-23T06:30:28.043Z,63.4
2018-12-23T06:31:17.821Z,63.4
2018-12-23T06:32:08.141Z,63.4
2018-12-23T06:32:57.767Z,63.4
2018-12-23T06:33:47.721Z,63.4
2018-12-23T06:34:38.063Z,63.3
2018-12-23T06:35:28.383Z,63.3
2018-12-23T06:36:18.158Z,63.3
2018-12-23T06:37:13.904Z,63.3
2018-12-23T06:37:58.540Z,63.3
2018-12-23T06:38:48.335Z,63.3
2018-12-23T06:39:38.670Z,63.3
2018-12-23T06:40:28.738Z,63.3
2018-12-23T06:41:18.770Z,63.3
2018-12-23T06:42:08.552Z,63.3
2018-12-23T06:42:58.343Z,63.3
2018-12-23T06:43:48.800Z,63.3
2018-12-23T06:44:38.772Z,63.3
2018-12-23T06:45:28.787Z,63.3
2018-12-23T06:46:18.932Z,63.3
2018-12-23T06:47:09.000Z,63.3
2018-12-23T06:47:59.022Z,63.2
2018-12-23T06:48:49.282Z,63.2
2018-12-23T06:49:39.082Z,63.2
2018-12-23T06:50:29.652Z,63.2
2018-12-23T06:51:19.174Z,63.2
2018-12-23T06:52:09.237Z,63.2
2018-12-23T06:52:59.554Z,63.1
2018-12-23T06:53:49.347Z,63.1
2018-12-23T06:54:39.980Z,63.1
2018-12-23T06:55:29.229Z,63.1
2018-12-23T06:56:19.522Z,63.1
2018-12-23T06:57:09.926Z,63.1
2018-12-23T06:57:59.637Z,63.1
2018-12-23T06:58:49.939Z,63.1
2018-12-23T06:59:39.731Z,63.1
2018-12-23T07:00:29.791Z,63.1
2018-12-23T07:01:19.866Z,63
2018-12-23T07:02:09.759Z,63.1
2018-12-23T07:03:00.261Z,63.1
2018-12-23T07:03:50.020Z,63
2018-12-23T07:04:40.091Z,63
2018-12-23T07:05:30.441Z,63
2018-12-23T07:06:20.483Z,63
2018-12-23T07:07:19.108Z,63
2018-12-23T07:08:00.588Z,62.9
2018-12-23T07:08:50.626Z,62.9
2018-12-23T07:09:40.425Z,62.9
2018-12-23T07:10:30.538Z,62.9
2018-12-23T07:11:20.918Z,62.9
2018-12-23T07:12:10.873Z,62.9
2018-12-23T07:13:00.683Z,62.9
2018-12-23T07:13:50.701Z,62.9
2018-12-23T07:14:40.738Z,62.9
2018-12-23T07:15:31.156Z,62.9
2018-12-23T07:16:20.868Z,62.9
2018-12-23T07:17:11.205Z,62.9
2018-12-23T07:18:00.786Z,62.9
2018-12-23T07:18:51.061Z,62.9
2018-12-23T07:19:41.625Z,62.8
2018-12-23T07:20:30.953Z,62.8
2018-12-23T07:21:21.493Z,62.8
2018-12-23T07:22:11.007Z,62.8
2018-12-23T07:23:01.330Z,62.8
2018-12-23T07:23:51.658Z,62.8
2018-12-23T07:24:41.145Z,62.8
2018-12-23T07:25:31.495Z,62.8
2018-12-23T07:26:21.892Z,62.8
2018-12-23T07:27:11.425Z,62.8
2018-12-23T07:28:01.748Z,62.8
2018-12-23T07:28:51.722Z,62.8
2018-12-23T07:29:41.483Z,62.8
2018-12-23T07:30:32.110Z,62.7
2018-12-23T07:31:22.167Z,62.7
2018-12-23T07:32:11.770Z,62.7
2018-12-23T07:33:01.725Z,62.7
2018-12-23T07:33:51.579Z,62.7
2018-12-23T07:34:41.574Z,62.7
2018-12-23T07:35:32.414Z,62.7
2018-12-23T07:36:21.955Z,62.6
2018-12-23T07:37:12.286Z,62.6
2018-12-23T07:38:02.649Z,62.6
2018-12-23T07:38:52.399Z,62.6
2018-12-23T07:39:42.736Z,62.6
2018-12-23T07:40:31.987Z,62.6
2018-12-23T07:41:23.097Z,62.6
2018-12-23T07:42:12.339Z,62.6
2018-12-23T07:43:02.683Z,62.6
2018-12-23T07:43:53.014Z,62.6
2018-12-23T07:44:43.096Z,62.6
2018-12-23T07:45:32.861Z,62.6
2018-12-23T07:46:23.698Z,62.6
2018-12-23T07:47:12.972Z,62.5
2018-12-23T07:48:03.317Z,62.5
2018-12-23T07:48:53.081Z,62.5
2018-12-23T07:49:43.411Z,62.5
2018-12-23T07:50:33.294Z,62.5
2018-12-23T07:51:23.221Z,62.4
2018-12-23T07:52:13.323Z,62.5
2018-12-23T07:53:03.090Z,62.4
2018-12-23T07:53:53.428Z,62.4
2018-12-23T07:54:43.515Z,62.4
2018-12-23T07:55:33.262Z,62.4
2018-12-23T07:56:22.850Z,62.4
2018-12-23T07:57:13.636Z,62.4
2018-12-23T07:58:03.707Z,62.4
2018-12-23T07:58:53.200Z,62.4
2018-12-23T07:59:43.817Z,62.4
2018-12-23T08:00:33.877Z,62.4
2018-12-23T08:01:24.025Z,62.4
2018-12-23T08:02:14.029Z,62.3
2018-12-23T08:03:04.320Z,62.3
2018-12-23T08:03:54.375Z,62.3
2018-12-23T08:04:44.425Z,62.3
2018-12-23T08:05:34.215Z,62.3
2018-12-23T08:06:24.803Z,62.3
2018-12-23T08:07:14.122Z,62.3
2018-12-23T08:08:04.124Z,62.3
2018-12-23T08:08:54.430Z,62.3
2018-12-23T08:09:43.947Z,62.3
2018-12-23T08:10:34.068Z,62.3
2018-12-23T08:11:24.123Z,62.3
2018-12-23T08:12:14.184Z,62.3
2018-12-23T08:13:04.534Z,62.2
2018-12-23T08:13:54.789Z,62.2
2018-12-23T08:14:44.080Z,62.2
2018-12-23T08:15:34.689Z,62.2
2018-12-23T08:16:24.464Z,62.2
2018-12-23T08:17:15.016Z,62.2
2018-12-23T08:18:06.136Z,62.2
2018-12-23T08:18:54.930Z,62.1
2018-12-23T08:19:44.696Z,62.1
2018-12-23T08:20:34.746Z,62.1
2018-12-23T08:21:25.339Z,62.1
2018-12-23T08:22:14.866Z,62.1
2018-12-23T08:23:04.941Z,62.1
2018-12-23T08:23:55.744Z,62.1
2018-12-23T08:24:44.868Z,62.1
2018-12-23T08:25:38.898Z,62.1
2018-12-23T08:26:25.416Z,62.1
2018-12-23T08:27:14.926Z,62.1
2018-12-23T08:28:04.713Z,62.1
2018-12-23T08:28:55.128Z,62.1
2018-12-23T08:29:44.552Z,62
2018-12-23T08:30:35.713Z,62
2018-12-23T08:31:25.489Z,62
2018-12-23T08:32:15.805Z,62
2018-12-23T08:33:06.150Z,62
2018-12-23T08:33:55.113Z,62
2018-12-23T08:34:45.719Z,61.9
2018-12-23T08:35:36.078Z,61.9
2018-12-23T08:36:26.363Z,61.9
2018-12-23T08:37:16.173Z,61.9
2018-12-23T08:38:05.662Z,61.9
2018-12-23T08:38:55.995Z,61.9
2018-12-23T08:39:45.580Z,61.9
2018-12-23T08:40:36.703Z,61.9
2018-12-23T08:41:26.933Z,61.9
2018-12-23T08:42:16.714Z,61.9
2018-12-23T08:43:06.287Z,61.9
2018-12-23T08:43:56.785Z,61.9
2018-12-23T08:44:46.720Z,61.9
2018-12-23T08:45:36.377Z,61.8
2018-12-23T08:46:27.247Z,61.8
2018-12-23T08:47:16.760Z,61.8
2018-12-23T08:48:07.215Z,61.8
2018-12-23T08:48:57.460Z,61.8
2018-12-23T08:49:47.225Z,61.8
2018-12-23T08:50:37.262Z,61.8
2018-12-23T08:51:27.605Z,61.8
2018-12-23T08:52:17.692Z,61.8
2018-12-23T08:53:07.963Z,61.8
2018-12-23T08:53:56.952Z,61.7
2018-12-23T08:54:47.284Z,61.8
2018-12-23T08:55:37.876Z,61.8
2018-12-23T08:56:27.399Z,61.7
2018-12-23T08:57:17.789Z,61.7
2018-12-23T08:58:07.816Z,61.7
2018-12-23T08:58:57.840Z,61.7
2018-12-23T08:59:48.244Z,61.7
2018-12-23T09:00:37.957Z,61.7
2018-12-23T09:16:27.393Z,61.4
2018-12-23T09:17:17.200Z,61.4
2018-12-23T09:18:06.965Z,61.4
2018-12-23T09:18:57.028Z,61.4
2018-12-23T09:19:47.370Z,61.4
2018-12-23T09:20:37.413Z,61.4
2018-12-23T09:21:27.484Z,61.4
2018-12-23T09:22:17.003Z,61.4
2018-12-23T09:23:07.037Z,61.4
2018-12-23T09:23:57.849Z,61.4
2018-12-23T09:24:47.950Z,61.4
2018-12-23T09:25:37.207Z,61.4
2018-12-23T09:26:27.820Z,61.4
2018-12-23T09:27:17.589Z,61.3
2018-12-23T09:28:09.957Z,61.3
2018-12-23T09:28:57.719Z,61.3
2018-12-23T09:29:48.054Z,61.3
2018-12-23T09:30:37.560Z,61.3
2018-12-23T09:31:28.132Z,61.3
2018-12-23T09:32:18.219Z,61.3
2018-12-23T09:33:08.271Z,61.3
2018-12-23T09:33:58.439Z,61.3
2018-12-23T09:34:48.402Z,61.3
2018-12-23T09:35:38.171Z,61.3
2018-12-23T09:36:27.984Z,61.3
2018-12-23T09:37:18.022Z,61.2
2018-12-23T09:38:08.361Z,61.2
2018-12-23T09:38:58.126Z,61.2
2018-12-23T09:39:48.476Z,61.2
2018-12-23T09:40:38.329Z,61.2
2018-12-23T09:41:29.316Z,61.2
2018-12-23T09:42:19.164Z,61.1
2018-12-23T09:43:08.704Z,61.2
2018-12-23T09:43:59.043Z,61.1
2018-12-23T09:44:49.576Z,61.1
2018-12-23T09:45:38.673Z,61.1
2018-12-23T09:46:29.743Z,61.1
2018-12-23T09:47:19.718Z,61.1
2018-12-23T09:48:09.243Z,61.1
2018-12-23T09:48:59.868Z,61.1
2018-12-23T09:49:49.658Z,61.1
2018-12-23T09:50:39.418Z,61.1
2018-12-23T09:51:29.495Z,61.1
2018-12-23T09:52:19.615Z,61.1
2018-12-23T09:53:09.988Z,61.1
2018-12-23T09:53:59.718Z,61
2018-12-23T09:54:50.290Z,61
2018-12-23T09:55:40.308Z,61
2018-12-23T09:56:30.580Z,61
2018-12-23T09:57:20.245Z,61
2018-12-23T09:58:10.532Z,60.9
2018-12-23T09:59:00.243Z,60.9
2018-12-23T09:59:50.066Z,60.9
2018-12-23T10:00:39.852Z,60.9
2018-12-23T10:01:30.832Z,60.9
2018-12-23T10:02:20.514Z,60.9
2018-12-23T10:03:10.622Z,60.9
2018-12-23T10:04:00.125Z,60.9
2018-12-23T10:04:50.764Z,60.9
2018-12-23T10:05:40.562Z,60.9
2018-12-23T10:06:30.805Z,60.9
2018-12-23T10:07:20.873Z,60.9
2018-12-23T10:08:14.264Z,60.8
2018-12-23T10:09:00.735Z,60.8
2018-12-23T10:09:51.022Z,60.8
2018-12-23T10:10:41.090Z,60.8
2018-12-23T10:11:31.269Z,60.8
2018-12-23T10:12:20.926Z,60.8
2018-12-23T10:13:11.117Z,60.8
2018-12-23T10:14:01.586Z,60.8
2018-12-23T10:14:51.104Z,60.8
2018-12-23T10:15:41.447Z,60.8
2018-12-23T10:16:31.784Z,60.8
2018-12-23T10:17:21.604Z,60.8
2018-12-23T10:18:11.884Z,60.8
2018-12-23T10:19:00.914Z,60.7
2018-12-23T10:19:52.004Z,60.7
2018-12-23T10:20:41.778Z,60.7
2018-12-23T10:21:31.570Z,60.7
2018-12-23T10:22:21.867Z,60.7
2018-12-23T10:23:12.016Z,60.7
2018-12-23T10:24:02.304Z,60.7
2018-12-23T10:24:52.350Z,60.7
2018-12-23T10:25:41.942Z,60.6
2018-12-23T10:26:31.924Z,60.6
2018-12-23T10:27:21.499Z,60.6
2018-12-23T10:28:12.354Z,60.6
2018-12-23T10:29:02.261Z,60.6
2018-12-23T10:29:51.668Z,60.6
2018-12-23T10:30:41.721Z,60.6
2018-12-23T10:31:31.796Z,60.6
2018-12-23T10:32:21.856Z,60.6
2018-12-23T10:33:12.456Z,60.6
2018-12-23T10:34:01.961Z,60.5
2018-12-23T10:34:52.303Z,60.5
2018-12-23T10:35:42.370Z,60.5
2018-12-23T10:36:32.133Z,60.5
2018-12-23T10:37:22.851Z,60.5
2018-12-23T10:38:21.165Z,60.5
2018-12-23T10:39:02.661Z,60.4
2018-12-23T10:39:52.928Z,60.5
2018-12-23T10:40:42.778Z,60.4
2018-12-23T10:41:32.470Z,60.4
2018-12-23T10:42:23.191Z,60.4
2018-12-23T10:43:12.896Z,60.4
2018-12-23T10:44:02.658Z,60.4
2018-12-23T10:44:53.273Z,60.4
2018-12-23T10:45:42.778Z,60.4
2018-12-23T10:46:33.390Z,60.4
2018-12-23T10:47:22.884Z,60.4
2018-12-23T10:48:13.420Z,60.4
2018-12-23T10:49:03.385Z,60.4
2018-12-23T10:49:54.178Z,60.3
2018-12-23T10:50:43.722Z,60.3
2018-12-23T10:51:33.387Z,60.3
2018-12-23T10:52:23.252Z,60.3
2018-12-23T10:53:14.327Z,60.3
2018-12-23T10:54:03.367Z,60.3
2018-12-23T10:54:53.897Z,60.3
2018-12-23T10:55:44.340Z,60.3
2018-12-23T10:56:34.327Z,60.3
2018-12-23T10:57:24.382Z,60.3
2018-12-23T10:58:14.687Z,60.3
2018-12-23T10:59:04.472Z,60.3
2018-12-23T10:59:53.579Z,60.2
2018-12-23T11:00:44.577Z,60.2
2018-12-23T11:01:35.028Z,60.2
2018-12-23T11:02:24.692Z,60.2
2018-12-23T11:03:14.755Z,60.2
2018-12-23T11:04:04.876Z,60.2
2018-12-23T11:04:54.879Z,60.1
2018-12-23T11:05:45.184Z,60.2
2018-12-23T11:06:35.269Z,60.1
2018-12-23T11:07:25.041Z,60.1
2018-12-23T11:08:15.112Z,60.1
2018-12-23T11:09:04.898Z,60.1
2018-12-23T11:10:04.141Z,60.1
2018-12-23T11:10:45.279Z,60.1
2018-12-23T11:11:35.616Z,60.1
2018-12-23T11:12:25.664Z,60.1
2018-12-23T11:13:15.168Z,60.1
2018-12-23T11:14:05.261Z,60.1
2018-12-23T11:14:55.579Z,60.1
2018-12-23T11:15:46.228Z,60
2018-12-23T11:16:35.478Z,60
2018-12-23T11:17:25.765Z,60
2018-12-23T11:18:15.804Z,60
2018-12-23T11:19:05.568Z,60
2018-12-23T11:19:55.906Z,59.9
2018-12-23T11:20:45.710Z,59.9
2018-12-23T11:21:38.276Z,59.9
2018-12-23T11:22:25.383Z,59.9
2018-12-23T11:23:16.418Z,59.9
2018-12-23T11:24:06.458Z,59.9
2018-12-23T11:24:56.273Z,59.9
2018-12-23T11:25:46.665Z,59.9
2018-12-23T11:26:36.395Z,59.9
2018-12-23T11:27:26.230Z,59.9
2018-12-23T11:28:16.775Z,59.9
2018-12-23T11:29:06.272Z,59.9
2018-12-23T11:29:56.661Z,59.9
2018-12-23T11:30:46.472Z,59.8
2018-12-23T11:31:36.517Z,59.8
2018-12-23T11:32:26.787Z,59.8
2018-12-23T11:33:17.162Z,59.8
2018-12-23T11:34:07.234Z,59.8
2018-12-23T11:34:57.250Z,59.8
2018-12-23T11:35:46.759Z,59.8
2018-12-23T11:36:36.777Z,59.8
2018-12-23T11:37:26.866Z,59.8
2018-12-23T11:38:19.171Z,59.8
2018-12-23T11:39:07.046Z,59.8
2018-12-23T11:39:57.599Z,59.8
2018-12-23T11:40:47.369Z,59.7
2018-12-23T11:41:37.569Z,59.8
2018-12-23T11:42:27.327Z,59.7
2018-12-23T11:43:17.259Z,59.7
2018-12-23T11:44:07.141Z,59.7
2018-12-23T11:44:57.661Z,59.7
2018-12-23T11:45:47.172Z,59.7
2018-12-23T11:46:37.876Z,59.7
2018-12-23T11:47:27.608Z,59.7
2018-12-23T11:48:18.171Z,59.6
2018-12-23T11:49:07.958Z,59.6
2018-12-23T11:49:58.018Z,59.6
2018-12-23T11:50:47.796Z,59.6
2018-12-23T11:51:38.143Z,59.6
2018-12-23T11:52:27.911Z,59.6
2018-12-23T11:53:18.243Z,59.6
2018-12-23T11:54:07.801Z,59.6
2018-12-23T11:54:58.473Z,59.6
2018-12-23T11:55:48.423Z,59.5
2018-12-23T11:56:38.492Z,59.6
2018-12-23T11:57:28.266Z,59.5
2018-12-23T11:58:18.887Z,59.5
2018-12-23T11:59:08.710Z,59.5
2018-12-23T11:59:58.716Z,59.5
2018-12-23T12:00:49.040Z,59.5
2018-12-23T12:01:39.131Z,59.4
2018-12-23T12:02:28.892Z,59.5
2018-12-23T12:03:18.951Z,59.4
2018-12-23T12:04:09.292Z,59.4
2018-12-23T12:04:58.509Z,59.4
2018-12-23T12:05:49.419Z,59.4
2018-12-23T12:06:39.197Z,59.4
2018-12-23T12:07:29.237Z,59.4
2018-12-23T12:08:19.592Z,59.4
2018-12-23T12:09:10.598Z,59.4
2018-12-23T12:09:59.792Z,59.4
2018-12-23T12:10:49.442Z,59.4
2018-12-23T12:11:39.272Z,59.3
2018-12-23T12:12:29.882Z,59.4
2018-12-23T12:13:20.034Z,59.3
2018-12-23T12:14:09.244Z,59.3
2018-12-23T12:14:59.229Z,59.3
2018-12-23T12:15:50.062Z,59.3
2018-12-23T12:16:40.149Z,59.3
2018-12-23T12:17:29.982Z,59.3
2018-12-23T12:18:19.829Z,59.3
2018-12-23T12:19:10.346Z,59.3
2018-12-23T12:20:00.300Z,59.3
2018-12-23T12:20:50.482Z,59.3
2018-12-23T12:21:40.512Z,59.3
2018-12-23T12:22:30.677Z,59.2
2018-12-23T12:23:20.354Z,59.2
2018-12-23T12:24:10.133Z,59.2
2018-12-23T12:24:59.932Z,59.2
2018-12-23T12:25:50.247Z,59.2
2018-12-23T12:26:40.034Z,59.2
2018-12-23T12:27:30.656Z,59.1
2018-12-23T12:28:20.961Z,59.2
2018-12-23T12:29:12.445Z,59.1
2018-12-23T12:30:01.366Z,59.1
2018-12-23T12:30:50.579Z,59.1
2018-12-23T12:31:40.384Z,59.1
2018-12-23T12:32:30.986Z,59.1
2018-12-23T12:33:21.061Z,59.1
2018-12-23T12:34:11.103Z,59.1
2018-12-23T12:35:02.581Z,59.1
2018-12-23T12:35:51.761Z,59.1
2018-12-23T12:36:40.511Z,59.1
2018-12-23T12:37:31.056Z,59.1
2018-12-23T12:38:21.126Z,59
2018-12-23T12:39:11.173Z,59
2018-12-23T12:40:01.323Z,59
2018-12-23T12:40:54.126Z,59
2018-12-23T12:41:41.641Z,59
2018-12-23T12:42:31.748Z,59
2018-12-23T12:43:21.441Z,59
2018-12-23T12:44:11.530Z,58.9
2018-12-23T12:45:02.028Z,58.9
2018-12-23T12:46:00.286Z,58.9
2018-12-23T12:46:41.968Z,58.9
2018-12-23T12:47:32.070Z,58.9
2018-12-23T12:48:22.093Z,58.9
2018-12-23T12:49:12.426Z,58.9
2018-12-23T12:50:02.321Z,58.9
2018-12-23T12:50:52.273Z,58.9
2018-12-23T12:51:42.283Z,58.9
2018-12-23T12:52:32.495Z,58.8
2018-12-23T12:53:22.738Z,58.8
2018-12-23T12:54:12.500Z,58.8
2018-12-23T12:55:02.918Z,58.8
2018-12-23T12:55:52.635Z,58.8
2018-12-23T12:56:42.708Z,58.8
2018-12-23T12:57:33.005Z,58.8
2018-12-23T12:58:23.220Z,58.8
2018-12-23T12:59:13.117Z,58.8
2018-12-23T13:00:03.461Z,58.8
2018-12-23T13:00:53.022Z,58.7
2018-12-23T13:01:43.144Z,58.7
2018-12-23T13:02:32.800Z,58.7
2018-12-23T13:03:22.595Z,58.7
2018-12-23T13:04:12.928Z,58.7
2018-12-23T13:05:03.532Z,58.6
2018-12-23T13:05:53.315Z,58.6
2018-12-23T13:06:43.710Z,58.6
2018-12-23T13:07:33.702Z,58.6
2018-12-23T13:08:23.216Z,58.6
2018-12-23T13:10:03.834Z,58.6
2018-12-23T13:15:03.989Z,58.5
2018-12-23T13:15:54.327Z,58.5
2018-12-23T13:16:44.054Z,58.5
2018-12-23T13:17:34.136Z,58.5
2018-12-23T13:18:24.478Z,58.5
2018-12-23T13:19:14.049Z,58.4
2018-12-23T13:20:04.046Z,58.4
2018-12-23T13:20:54.964Z,58.4
2018-12-23T13:21:44.141Z,58.4
2018-12-23T13:22:34.803Z,58.4
2018-12-23T13:23:25.117Z,58.4
2018-12-23T13:24:13.830Z,58.4
2018-12-23T13:25:04.479Z,58.4
2018-12-23T13:25:54.988Z,58.4
2018-12-23T13:26:44.482Z,58.4
2018-12-23T13:27:35.063Z,58.4
2018-12-23T13:28:24.196Z,58.3
2018-12-23T13:29:14.449Z,58.4
2018-12-23T13:30:04.810Z,58.3
2018-12-23T13:30:54.790Z,58.3
2018-12-23T13:31:45.693Z,58.3
2018-12-23T13:32:34.711Z,58.3
2018-12-23T13:33:25.073Z,58.3
2018-12-23T13:34:15.093Z,58.3
2018-12-23T13:35:04.973Z,58.3
2018-12-23T13:35:54.927Z,58.3
2018-12-23T13:36:45.315Z,58.3
2018-12-23T13:37:35.022Z,58.3
2018-12-23T13:38:25.604Z,58.3
2018-12-23T13:39:15.165Z,58.2
2018-12-23T13:40:05.218Z,58.3
2018-12-23T13:40:55.007Z,58.2
2018-12-23T13:41:48.231Z,58.2
2018-12-23T13:42:35.115Z,58.2
2018-12-23T13:43:25.165Z,58.2
2018-12-23T13:44:15.788Z,58.2
2018-12-23T13:45:05.839Z,58.1
2018-12-23T13:45:55.607Z,58.1
2018-12-23T13:46:45.444Z,58.1
2018-12-23T13:47:35.451Z,58.1
2018-12-23T13:48:25.772Z,58.1
2018-12-23T13:49:15.119Z,58.1
2018-12-23T13:50:05.642Z,58.1
2018-12-23T13:50:55.951Z,58.1
2018-12-23T13:51:46.021Z,58.1
2018-12-23T13:52:35.904Z,58.1
2018-12-23T13:53:26.246Z,58.1
2018-12-23T13:54:18.270Z,58
2018-12-23T13:55:06.051Z,58
2018-12-23T13:55:56.593Z,58
2018-12-23T13:56:46.350Z,58
2018-12-23T13:57:36.691Z,58
2018-12-23T13:58:26.748Z,58
2018-12-23T14:20:22.505Z,57.7
2018-12-23T14:21:12.320Z,57.7
2018-12-23T14:22:02.372Z,57.7
2018-12-23T14:22:52.979Z,57.7
2018-12-23T14:23:42.469Z,57.7
2018-12-23T14:24:46.919Z,57.7
2018-12-23T14:25:22.864Z,57.7
2018-12-23T14:26:12.891Z,57.6
2018-12-23T14:27:02.976Z,57.6
2018-12-23T14:27:52.468Z,57.6
2018-12-23T14:28:43.104Z,57.6
2018-12-23T14:29:33.209Z,57.6
2018-12-23T14:30:22.954Z,57.6
2018-12-23T14:31:12.996Z,57.6
2018-12-23T14:32:03.323Z,57.6
2018-12-23T14:32:53.114Z,57.6
2018-12-23T14:33:43.646Z,57.6
2018-12-23T14:34:33.501Z,57.6
2018-12-23T14:35:23.230Z,57.5
2018-12-23T14:36:13.576Z,57.6
2018-12-23T14:37:03.583Z,57.5
2018-12-23T14:37:53.441Z,57.5
2018-12-23T14:38:43.501Z,57.5
2018-12-23T14:40:05.661Z,57.5
2018-12-23T14:40:23.337Z,57.5
2018-12-23T14:41:12.826Z,57.5
2018-12-23T14:42:03.518Z,57.4
2018-12-23T14:42:53.693Z,57.4
2018-12-23T14:43:44.128Z,57.4
2018-12-23T14:44:33.616Z,57.4
2018-12-23T14:45:23.953Z,57.4
2018-12-23T14:46:14.101Z,57.4
2018-12-23T14:47:18.711Z,57.4
2018-12-23T14:47:54.388Z,57.4
2018-12-23T14:48:44.170Z,57.4
2018-12-23T14:49:34.450Z,57.4
2018-12-23T14:50:24.376Z,57.4
2018-12-23T14:51:14.383Z,57.3
2018-12-23T14:52:19.543Z,57.4
2018-12-23T14:52:54.174Z,57.3
2018-12-23T14:53:44.775Z,57.3
2018-12-23T14:54:34.008Z,57.3
2018-12-23T14:55:24.893Z,57.3
2018-12-23T14:56:14.990Z,57.3
2018-12-23T14:57:04.752Z,57.3
2018-12-23T14:57:54.267Z,57.3
2018-12-23T14:58:45.123Z,57.3
2018-12-23T14:59:34.203Z,57.3
2018-12-23T15:00:25.477Z,57.3
2018-12-23T15:01:15.305Z,57.3
2018-12-23T15:02:05.638Z,57.3
2018-12-23T15:02:55.132Z,57.2
2018-12-23T15:03:44.634Z,57.2
2018-12-23T15:04:35.150Z,57.2
2018-12-23T15:05:25.130Z,57.2
2018-12-23T15:06:15.630Z,57.2
2018-12-23T15:07:06.325Z,57.2
2018-12-23T15:07:55.155Z,57.1
2018-12-23T15:08:45.632Z,57.1
2018-12-23T15:09:37.782Z,57.1
2018-12-23T15:10:25.357Z,57.1
2018-12-23T15:11:15.972Z,57.1
2018-12-23T15:12:06.085Z,57.1
2018-12-23T15:13:46.602Z,57.1
2018-12-23T15:14:50.557Z,57.1
2018-12-23T15:15:25.709Z,57.1
2018-12-23T15:16:16.332Z,57.1
2018-12-23T15:17:20.587Z,57.1
2018-12-23T15:17:55.957Z,57.1
2018-12-23T15:18:45.937Z,57.1
2018-12-23T15:19:35.992Z,57
2018-12-23T15:20:26.046Z,57
2018-12-23T15:21:16.384Z,57
2018-12-23T15:22:06.745Z,57
2018-12-23T15:22:56.502Z,57
2018-12-23T15:23:47.298Z,57
2018-12-23T15:24:36.914Z,57
2018-12-23T15:25:26.676Z,56.9
2018-12-23T15:26:17.234Z,56.9
2018-12-23T15:27:06.756Z,56.9
2018-12-23T15:27:57.129Z,56.9
2018-12-23T15:28:46.923Z,56.9
2018-12-23T15:29:36.984Z,56.9
2018-12-23T15:30:27.021Z,56.9
2018-12-23T15:31:31.672Z,56.9
2018-12-23T15:32:07.216Z,56.9
2018-12-23T15:32:57.680Z,56.9
2018-12-23T15:33:47.746Z,56.9
2018-12-23T15:34:37.584Z,56.9
2018-12-23T15:35:27.355Z,56.9
2018-12-23T15:36:17.409Z,56.9
2018-12-23T15:37:07.457Z,56.8
2018-12-23T15:37:57.979Z,56.8
2018-12-23T15:38:47.581Z,56.8
2018-12-23T15:39:45.999Z,56.8
2018-12-23T15:40:27.529Z,56.8
2018-12-23T15:41:17.753Z,56.8
2018-12-23T15:42:08.080Z,56.8
2018-12-23T15:42:57.891Z,56.8
2018-12-23T15:43:48.634Z,56.8
2018-12-23T15:44:38.363Z,56.8
2018-12-23T15:45:28.616Z,56.8
2018-12-23T15:46:18.209Z,56.8
2018-12-23T15:47:07.863Z,56.8
2018-12-23T15:47:58.701Z,56.8
2018-12-23T15:48:48.536Z,56.7
2018-12-23T15:49:38.599Z,56.7
2018-12-23T15:50:29.087Z,56.7
2018-12-23T15:51:18.938Z,56.7
2018-12-23T15:52:09.018Z,56.7
2018-12-23T15:52:59.101Z,56.6
2018-12-23T15:53:48.904Z,56.6
2018-12-23T15:54:47.468Z,56.6
2018-12-23T15:55:28.743Z,56.6
2018-12-23T15:56:18.856Z,56.6
2018-12-23T15:57:09.103Z,56.6
2018-12-23T15:57:59.688Z,56.6
2018-12-23T15:59:03.318Z,56.6
2018-12-23T15:59:39.263Z,56.6
2018-12-23T16:00:29.217Z,56.6
2018-12-23T16:01:33.220Z,56.6
2018-12-23T16:02:08.905Z,56.6
2018-12-23T16:02:59.228Z,56.6
2018-12-23T16:03:49.549Z,56.6
2018-12-23T16:04:39.343Z,56.5
2018-12-23T16:05:29.703Z,56.5
2018-12-23T16:06:19.732Z,56.5
2018-12-23T16:07:09.883Z,56.5
2018-12-23T16:07:59.472Z,56.5
2018-12-23T16:08:50.065Z,56.5
2018-12-23T16:09:39.952Z,56.4
2018-12-23T16:10:29.770Z,56.4
2018-12-23T16:11:20.274Z,56.4
2018-12-23T16:12:10.164Z,56.4
2018-12-23T16:13:14.847Z,56.4
2018-12-23T16:13:50.517Z,56.4
2018-12-23T16:14:40.934Z,56.4
2018-12-23T16:15:30.833Z,56.4
2018-12-23T16:16:19.584Z,56.4
2018-12-23T16:17:09.752Z,56.4
2018-12-23T16:18:00.245Z,56.4
2018-12-23T16:18:50.022Z,56.4
2018-12-23T16:19:41.084Z,56.4
2018-12-23T16:20:30.141Z,56.3
2018-12-23T16:21:20.471Z,56.3
2018-12-23T16:22:10.746Z,56.3
2018-12-23T16:23:00.849Z,56.3
2018-12-23T16:23:50.917Z,56.3
2018-12-23T16:24:39.926Z,56.3
2018-12-23T16:25:30.456Z,56.3
2018-12-23T16:26:21.263Z,56.3
2018-12-23T16:27:11.646Z,56.3
2018-12-23T16:28:01.486Z,56.3
2018-12-23T16:29:41.016Z,56.3
2018-12-23T16:30:30.866Z,56.3
2018-12-23T16:31:20.861Z,56.2
2018-12-23T16:32:10.626Z,56.2
2018-12-23T16:33:01.668Z,56.2
2018-12-23T16:33:51.116Z,56.2
2018-12-23T16:34:41.808Z,56.2
2018-12-23T16:35:31.420Z,56.1
2018-12-23T16:36:21.208Z,56.1
2018-12-23T16:37:11.872Z,56.1
2018-12-23T16:38:01.584Z,56.1
2018-12-23T16:38:52.149Z,56.1
2018-12-23T16:39:41.443Z,56.1
2018-12-23T16:40:31.750Z,56.1
2018-12-23T16:41:21.533Z,56.1
2018-12-23T16:42:11.973Z,56.1
2018-12-23T16:43:02.150Z,56.1
2018-12-23T16:43:51.977Z,56.1
2018-12-23T16:44:42.522Z,56.1
2018-12-23T16:45:32.082Z,56.1
2018-12-23T16:46:22.430Z,56.1
2018-12-23T16:47:12.480Z,56.1